sensor_id;sensor_type;location;lat;lon;timestamp;P1;durP1;ratioP1;P2;durP2;ratioP2
34571;SDS011;20808;48.974;8.452;2022-09-01T00:00:43;19.90;;;15.67;;
34571;SDS011;20808;48.974;8.452;2022-09-01T00:03:14;25.10;;;17.67;;
34571;SDS011;20808;48.974;8.452;2022-09-01T00:05:42;21.63;;;16.90;;
34571;SDS011;20808;48.974;8.452;2022-09-01T00:08:09;19.47;;;15.87;;
34571;SDS011;20808;48.974;8.452;2022-09-01T00:10:36;19.13;;;17.03;;
34571;SDS011;20808;48.974;8.452;2022-09-01T00:13:03;19.17;;;17.17;;
34571;SDS011;20808;48.974;8.452;2022-09-01T00:15:31;17.63;;;15.73;;
34571;SDS011;20808;48.974;8.452;2022-09-01T00:17:58;20.27;;;16.37;;
34571;SDS011;20808;48.974;8.452;2022-09-01T00:20:26;20.70;;;18.10;;
34571;SDS011;20808;48.974;8.452;2022-09-01T00:22:54;18.80;;;16.33;;
34571;SDS011;20808;48.974;8.452;2022-09-01T00:25:21;19.47;;;16.40;;
34571;SDS011;20808;48.974;8.452;2022-09-01T00:27:49;25.47;;;16.70;;
34571;SDS011;20808;48.974;8.452;2022-09-01T00:30:16;19.73;;;16.43;;
34571;SDS011;20808;48.974;8.452;2022-09-01T00:32:43;19.63;;;16.37;;
34571;SDS011;20808;48.974;8.452;2022-09-01T00:35:11;17.80;;;15.90;;
34571;SDS011;20808;48.974;8.452;2022-09-01T00:37:39;17.57;;;14.83;;
34571;SDS011;20808;48.974;8.452;2022-09-01T00:40:07;22.13;;;16.70;;
34571;SDS011;20808;48.974;8.452;2022-09-01T00:42:35;19.33;;;16.47;;
34571;SDS011;20808;48.974;8.452;2022-09-01T00:45:03;21.60;;;17.70;;
34571;SDS011;20808;48.974;8.452;2022-09-01T00:47:30;21.67;;;17.47;;
34571;SDS011;20808;48.974;8.452;2022-09-01T00:49:59;20.30;;;17.83;;
34571;SDS011;20808;48.974;8.452;2022-09-01T00:52:28;18.80;;;15.90;;
34571;SDS011;20808;48.974;8.452;2022-09-01T00:55:02;19.50;;;17.40;;
34571;SDS011;20808;48.974;8.452;2022-09-01T00:57:33;18.87;;;16.87;;
34571;SDS011;20808;48.974;8.452;2022-09-01T01:00:03;21.40;;;17.43;;
34571;SDS011;20808;48.974;8.452;2022-09-01T01:02:32;23.20;;;17.30;;
34571;SDS011;20808;48.974;8.452;2022-09-01T01:04:59;21.40;;;16.77;;
34571;SDS011;20808;48.974;8.452;2022-09-01T01:07:27;20.13;;;17.67;;
34571;SDS011;20808;48.974;8.452;2022-09-01T01:09:54;22.07;;;17.57;;
34571;SDS011;20808;48.974;8.452;2022-09-01T01:12:23;22.10;;;18.10;;
34571;SDS011;20808;48.974;8.452;2022-09-01T01:14:54;23.57;;;18.37;;
34571;SDS011;20808;48.974;8.452;2022-09-01T01:17:22;22.67;;;17.93;;
34571;SDS011;20808;48.974;8.452;2022-09-01T01:19:50;21.70;;;17.47;;
34571;SDS011;20808;48.974;8.452;2022-09-01T01:22:40;24.97;;;18.30;;
34571;SDS011;20808;48.974;8.452;2022-09-01T01:25:33;25.63;;;20.70;;
34571;SDS011;20808;48.974;8.452;2022-09-01T01:28:06;25.97;;;18.00;;
34571;SDS011;20808;48.974;8.452;2022-09-01T01:30:36;25.57;;;21.37;;
34571;SDS011;20808;48.974;8.452;2022-09-01T01:33:04;23.17;;;18.20;;
34571;SDS011;20808;48.974;8.452;2022-09-01T01:35:32;24.67;;;18.70;;
34571;SDS011;20808;48.974;8.452;2022-09-01T01:38:00;22.47;;;19.20;;
34571;SDS011;20808;48.974;8.452;2022-09-01T01:40:28;26.70;;;18.03;;
34571;SDS011;20808;48.974;8.452;2022-09-01T01:42:57;24.00;;;19.70;;
34571;SDS011;20808;48.974;8.452;2022-09-01T01:45:25;25.07;;;19.37;;
34571;SDS011;20808;48.974;8.452;2022-09-01T01:47:53;32.27;;;20.63;;
34571;SDS011;20808;48.974;8.452;2022-09-01T01:50:22;25.60;;;20.50;;
34571;SDS011;20808;48.974;8.452;2022-09-01T01:52:50;24.43;;;19.70;;
34571;SDS011;20808;48.974;8.452;2022-09-01T01:55:18;24.60;;;19.60;;
34571;SDS011;20808;48.974;8.452;2022-09-01T01:57:49;24.97;;;19.70;;
34571;SDS011;20808;48.974;8.452;2022-09-01T02:00:19;29.93;;;21.27;;
34571;SDS011;20808;48.974;8.452;2022-09-01T02:02:49;26.73;;;21.23;;
34571;SDS011;20808;48.974;8.452;2022-09-01T02:05:18;28.53;;;21.47;;
34571;SDS011;20808;48.974;8.452;2022-09-01T02:07:49;29.30;;;20.60;;
34571;SDS011;20808;48.974;8.452;2022-09-01T02:10:20;33.10;;;21.07;;
34571;SDS011;20808;48.974;8.452;2022-09-01T02:12:51;26.87;;;21.07;;
34571;SDS011;20808;48.974;8.452;2022-09-01T02:15:19;26.40;;;21.10;;
34571;SDS011;20808;48.974;8.452;2022-09-01T02:17:46;30.70;;;20.93;;
34571;SDS011;20808;48.974;8.452;2022-09-01T02:20:13;25.90;;;20.43;;
34571;SDS011;20808;48.974;8.452;2022-09-01T02:22:42;27.17;;;21.10;;
34571;SDS011;20808;48.974;8.452;2022-09-01T02:25:10;24.63;;;20.50;;
34571;SDS011;20808;48.974;8.452;2022-09-01T02:27:40;28.07;;;21.20;;
34571;SDS011;20808;48.974;8.452;2022-09-01T02:30:08;28.47;;;20.20;;
34571;SDS011;20808;48.974;8.452;2022-09-01T02:32:38;25.40;;;20.73;;
34571;SDS011;20808;48.974;8.452;2022-09-01T02:35:06;28.50;;;20.70;;
34571;SDS011;20808;48.974;8.452;2022-09-01T02:37:36;27.30;;;20.73;;
34571;SDS011;20808;48.974;8.452;2022-09-01T02:40:04;28.97;;;20.27;;
34571;SDS011;20808;48.974;8.452;2022-09-01T02:42:34;26.80;;;20.60;;
34571;SDS011;20808;48.974;8.452;2022-09-01T02:45:05;26.83;;;20.80;;
34571;SDS011;20808;48.974;8.452;2022-09-01T02:47:42;29.73;;;20.70;;
34571;SDS011;20808;48.974;8.452;2022-09-01T02:50:11;31.13;;;21.90;;
34571;SDS011;20808;48.974;8.452;2022-09-01T02:52:43;26.70;;;20.47;;
34571;SDS011;20808;48.974;8.452;2022-09-01T02:55:12;29.50;;;21.30;;
34571;SDS011;20808;48.974;8.452;2022-09-01T02:57:43;25.93;;;19.40;;
34571;SDS011;20808;48.974;8.452;2022-09-01T03:00:12;32.87;;;22.50;;
34571;SDS011;20808;48.974;8.452;2022-09-01T03:02:49;28.90;;;21.30;;
34571;SDS011;20808;48.974;8.452;2022-09-01T03:05:17;30.60;;;20.70;;
34571;SDS011;20808;48.974;8.452;2022-09-01T03:07:49;24.50;;;19.87;;
34571;SDS011;20808;48.974;8.452;2022-09-01T03:10:20;26.47;;;19.60;;
34571;SDS011;20808;48.974;8.452;2022-09-01T03:12:51;27.03;;;19.40;;
34571;SDS011;20808;48.974;8.452;2022-09-01T03:15:18;26.47;;;19.10;;
34571;SDS011;20808;48.974;8.452;2022-09-01T03:17:46;27.57;;;18.40;;
34571;SDS011;20808;48.974;8.452;2022-09-01T03:20:15;25.27;;;18.77;;
34571;SDS011;20808;48.974;8.452;2022-09-01T03:22:43;28.77;;;20.20;;
34571;SDS011;20808;48.974;8.452;2022-09-01T03:25:11;32.37;;;23.37;;
34571;SDS011;20808;48.974;8.452;2022-09-01T03:27:38;31.50;;;21.27;;
34571;SDS011;20808;48.974;8.452;2022-09-01T03:30:06;31.70;;;22.73;;
34571;SDS011;20808;48.974;8.452;2022-09-01T03:32:33;35.37;;;24.07;;
34571;SDS011;20808;48.974;8.452;2022-09-01T03:35:00;34.13;;;24.37;;
34571;SDS011;20808;48.974;8.452;2022-09-01T03:37:28;35.00;;;24.80;;
34571;SDS011;20808;48.974;8.452;2022-09-01T03:39:55;38.33;;;26.70;;
34571;SDS011;20808;48.974;8.452;2022-09-01T03:42:23;35.70;;;26.00;;
34571;SDS011;20808;48.974;8.452;2022-09-01T03:44:53;47.07;;;29.50;;
34571;SDS011;20808;48.974;8.452;2022-09-01T03:47:20;54.90;;;31.40;;
34571;SDS011;20808;48.974;8.452;2022-09-01T03:49:48;44.23;;;27.27;;
34571;SDS011;20808;48.974;8.452;2022-09-01T03:52:15;46.83;;;29.50;;
34571;SDS011;20808;48.974;8.452;2022-09-01T03:54:44;44.43;;;29.50;;
34571;SDS011;20808;48.974;8.452;2022-09-01T03:57:12;46.40;;;30.47;;
34571;SDS011;20808;48.974;8.452;2022-09-01T03:59:38;49.97;;;32.10;;
34571;SDS011;20808;48.974;8.452;2022-09-01T04:02:09;54.87;;;34.33;;
34571;SDS011;20808;48.974;8.452;2022-09-01T04:04:37;56.87;;;35.47;;
34571;SDS011;20808;48.974;8.452;2022-09-01T04:07:04;60.30;;;35.40;;
34571;SDS011;20808;48.974;8.452;2022-09-01T04:09:31;59.40;;;37.10;;
34571;SDS011;20808;48.974;8.452;2022-09-01T04:12:02;63.07;;;37.77;;
34571;SDS011;20808;48.974;8.452;2022-09-01T04:14:32;59.93;;;37.23;;
34571;SDS011;20808;48.974;8.452;2022-09-01T04:16:59;61.50;;;37.10;;
34571;SDS011;20808;48.974;8.452;2022-09-01T04:19:44;60.17;;;37.27;;
34571;SDS011;20808;48.974;8.452;2022-09-01T04:22:11;56.77;;;36.53;;
34571;SDS011;20808;48.974;8.452;2022-09-01T04:24:39;55.90;;;35.47;;
34571;SDS011;20808;48.974;8.452;2022-09-01T04:27:11;58.97;;;34.77;;
34571;SDS011;20808;48.974;8.452;2022-09-01T04:29:38;60.10;;;37.47;;
34571;SDS011;20808;48.974;8.452;2022-09-01T04:32:07;59.40;;;36.13;;
34571;SDS011;20808;48.974;8.452;2022-09-01T04:34:36;51.17;;;33.40;;
34571;SDS011;20808;48.974;8.452;2022-09-01T04:37:06;51.70;;;31.70;;
34571;SDS011;20808;48.974;8.452;2022-09-01T04:39:34;54.37;;;32.00;;
34571;SDS011;20808;48.974;8.452;2022-09-01T04:42:03;52.13;;;32.03;;
34571;SDS011;20808;48.974;8.452;2022-09-01T04:44:34;56.27;;;31.13;;
34571;SDS011;20808;48.974;8.452;2022-09-01T04:47:01;51.33;;;32.03;;
34571;SDS011;20808;48.974;8.452;2022-09-01T04:49:30;48.97;;;32.20;;
34571;SDS011;20808;48.974;8.452;2022-09-01T04:51:57;53.50;;;33.60;;
34571;SDS011;20808;48.974;8.452;2022-09-01T04:54:24;56.70;;;32.80;;
34571;SDS011;20808;48.974;8.452;2022-09-01T04:56:51;53.10;;;33.80;;
34571;SDS011;20808;48.974;8.452;2022-09-01T04:59:20;71.60;;;37.00;;
34571;SDS011;20808;48.974;8.452;2022-09-01T05:01:49;66.67;;;38.70;;
34571;SDS011;20808;48.974;8.452;2022-09-01T05:04:19;70.37;;;37.27;;
34571;SDS011;20808;48.974;8.452;2022-09-01T05:06:48;76.97;;;39.43;;
34571;SDS011;20808;48.974;8.452;2022-09-01T05:09:17;73.90;;;40.03;;
34571;SDS011;20808;48.974;8.452;2022-09-01T05:11:44;65.30;;;37.87;;
34571;SDS011;20808;48.974;8.452;2022-09-01T05:14:12;69.20;;;38.20;;
34571;SDS011;20808;48.974;8.452;2022-09-01T05:16:42;78.30;;;40.90;;
34571;SDS011;20808;48.974;8.452;2022-09-01T05:19:11;81.97;;;43.90;;
34571;SDS011;20808;48.974;8.452;2022-09-01T05:21:38;88.83;;;44.33;;
34571;SDS011;20808;48.974;8.452;2022-09-01T05:24:10;83.60;;;43.37;;
34571;SDS011;20808;48.974;8.452;2022-09-01T05:26:39;73.60;;;42.60;;
34571;SDS011;20808;48.974;8.452;2022-09-01T05:29:08;71.70;;;43.03;;
34571;SDS011;20808;48.974;8.452;2022-09-01T05:31:38;75.33;;;43.23;;
34571;SDS011;20808;48.974;8.452;2022-09-01T05:34:06;68.80;;;41.17;;
34571;SDS011;20808;48.974;8.452;2022-09-01T05:36:36;67.43;;;41.63;;
34571;SDS011;20808;48.974;8.452;2022-09-01T05:39:06;71.60;;;42.07;;
34571;SDS011;20808;48.974;8.452;2022-09-01T05:41:36;73.20;;;40.43;;
34571;SDS011;20808;48.974;8.452;2022-09-01T05:44:04;66.27;;;40.17;;
34571;SDS011;20808;48.974;8.452;2022-09-01T05:46:32;62.90;;;39.93;;
34571;SDS011;20808;48.974;8.452;2022-09-01T05:49:00;68.60;;;40.20;;
34571;SDS011;20808;48.974;8.452;2022-09-01T05:51:27;62.20;;;38.27;;
34571;SDS011;20808;48.974;8.452;2022-09-01T05:54:01;68.80;;;40.47;;
34571;SDS011;20808;48.974;8.452;2022-09-01T05:56:29;62.30;;;39.50;;
34571;SDS011;20808;48.974;8.452;2022-09-01T05:58:58;67.53;;;38.97;;
34571;SDS011;20808;48.974;8.452;2022-09-01T06:01:27;65.53;;;38.57;;
34571;SDS011;20808;48.974;8.452;2022-09-01T06:03:56;64.23;;;38.23;;
34571;SDS011;20808;48.974;8.452;2022-09-01T06:06:24;57.00;;;38.00;;
34571;SDS011;20808;48.974;8.452;2022-09-01T06:08:52;60.50;;;36.03;;
34571;SDS011;20808;48.974;8.452;2022-09-01T06:11:24;58.67;;;37.60;;
34571;SDS011;20808;48.974;8.452;2022-09-01T06:13:54;56.87;;;36.27;;
34571;SDS011;20808;48.974;8.452;2022-09-01T06:16:22;49.67;;;34.53;;
34571;SDS011;20808;48.974;8.452;2022-09-01T06:18:50;56.03;;;36.60;;
34571;SDS011;20808;48.974;8.452;2022-09-01T06:21:18;47.00;;;32.67;;
34571;SDS011;20808;48.974;8.452;2022-09-01T06:23:46;49.23;;;31.60;;
34571;SDS011;20808;48.974;8.452;2022-09-01T06:26:15;45.00;;;30.77;;
34571;SDS011;20808;48.974;8.452;2022-09-01T06:28:44;44.70;;;31.07;;
34571;SDS011;20808;48.974;8.452;2022-09-01T06:31:12;37.90;;;28.93;;
34571;SDS011;20808;48.974;8.452;2022-09-01T06:33:39;41.10;;;27.17;;
34571;SDS011;20808;48.974;8.452;2022-09-01T06:36:06;33.70;;;25.37;;
34571;SDS011;20808;48.974;8.452;2022-09-01T06:38:34;33.37;;;25.30;;
34571;SDS011;20808;48.974;8.452;2022-09-01T06:41:01;31.33;;;22.97;;
34571;SDS011;20808;48.974;8.452;2022-09-01T06:43:30;31.93;;;22.70;;
34571;SDS011;20808;48.974;8.452;2022-09-01T06:46:00;29.13;;;22.10;;
34571;SDS011;20808;48.974;8.452;2022-09-01T06:48:27;30.27;;;21.20;;
34571;SDS011;20808;48.974;8.452;2022-09-01T06:50:58;26.07;;;19.27;;
34571;SDS011;20808;48.974;8.452;2022-09-01T06:53:27;23.77;;;18.60;;
34571;SDS011;20808;48.974;8.452;2022-09-01T06:55:55;22.13;;;17.93;;
34571;SDS011;20808;48.974;8.452;2022-09-01T06:58:22;17.93;;;15.23;;
34571;SDS011;20808;48.974;8.452;2022-09-01T07:00:50;20.77;;;15.23;;
34571;SDS011;20808;48.974;8.452;2022-09-01T07:03:19;18.90;;;15.20;;
34571;SDS011;20808;48.974;8.452;2022-09-01T07:05:47;17.40;;;13.50;;
34571;SDS011;20808;48.974;8.452;2022-09-01T07:08:15;15.67;;;12.90;;
34571;SDS011;20808;48.974;8.452;2022-09-01T07:10:46;18.70;;;13.40;;
34571;SDS011;20808;48.974;8.452;2022-09-01T07:13:15;14.87;;;12.53;;
34571;SDS011;20808;48.974;8.452;2022-09-01T07:15:48;13.00;;;11.33;;
34571;SDS011;20808;48.974;8.452;2022-09-01T07:18:16;13.67;;;12.10;;
34571;SDS011;20808;48.974;8.452;2022-09-01T07:20:46;12.83;;;11.40;;
34571;SDS011;20808;48.974;8.452;2022-09-01T07:23:15;14.60;;;11.27;;
34571;SDS011;20808;48.974;8.452;2022-09-01T07:25:44;13.70;;;11.30;;
34571;SDS011;20808;48.974;8.452;2022-09-01T07:28:13;15.40;;;11.97;;
34571;SDS011;20808;48.974;8.452;2022-09-01T07:30:43;14.07;;;11.10;;
34571;SDS011;20808;48.974;8.452;2022-09-01T07:33:12;17.43;;;11.70;;
34571;SDS011;20808;48.974;8.452;2022-09-01T07:35:44;12.00;;;10.20;;
34571;SDS011;20808;48.974;8.452;2022-09-01T07:38:13;16.27;;;11.00;;
34571;SDS011;20808;48.974;8.452;2022-09-01T07:40:44;11.43;;;9.73;;
34571;SDS011;20808;48.974;8.452;2022-09-01T07:43:13;12.37;;;10.50;;
34571;SDS011;20808;48.974;8.452;2022-09-01T07:45:44;13.40;;;10.90;;
34571;SDS011;20808;48.974;8.452;2022-09-01T07:48:13;17.17;;;10.63;;
34571;SDS011;20808;48.974;8.452;2022-09-01T07:50:42;11.53;;;10.03;;
34571;SDS011;20808;48.974;8.452;2022-09-01T07:53:13;13.20;;;10.40;;
34571;SDS011;20808;48.974;8.452;2022-09-01T07:55:42;13.00;;;9.93;;
34571;SDS011;20808;48.974;8.452;2022-09-01T07:58:10;12.70;;;9.60;;
34571;SDS011;20808;48.974;8.452;2022-09-01T08:00:37;12.67;;;9.20;;
34571;SDS011;20808;48.974;8.452;2022-09-01T08:03:07;12.50;;;9.73;;
34571;SDS011;20808;48.974;8.452;2022-09-01T08:05:34;13.00;;;10.13;;
34571;SDS011;20808;48.974;8.452;2022-09-01T08:08:01;14.73;;;8.80;;
34571;SDS011;20808;48.974;8.452;2022-09-01T08:10:29;11.33;;;10.10;;
34571;SDS011;20808;48.974;8.452;2022-09-01T08:12:56;12.43;;;9.73;;
34571;SDS011;20808;48.974;8.452;2022-09-01T08:15:24;11.03;;;9.67;;
34571;SDS011;20808;48.974;8.452;2022-09-01T08:17:51;11.70;;;9.27;;
34571;SDS011;20808;48.974;8.452;2022-09-01T08:20:18;11.50;;;9.30;;
34571;SDS011;20808;48.974;8.452;2022-09-01T08:22:45;12.23;;;9.87;;
34571;SDS011;20808;48.974;8.452;2022-09-01T08:25:11;12.90;;;8.70;;
34571;SDS011;20808;48.974;8.452;2022-09-01T08:27:41;12.73;;;8.93;;
34571;SDS011;20808;48.974;8.452;2022-09-01T08:30:08;10.00;;;8.83;;
34571;SDS011;20808;48.974;8.452;2022-09-01T08:32:38;10.43;;;8.77;;
34571;SDS011;20808;48.974;8.452;2022-09-01T08:35:07;14.43;;;9.20;;
34571;SDS011;20808;48.974;8.452;2022-09-01T08:37:34;9.20;;;8.30;;
34571;SDS011;20808;48.974;8.452;2022-09-01T08:40:01;10.60;;;8.30;;
34571;SDS011;20808;48.974;8.452;2022-09-01T08:42:34;9.70;;;8.00;;
34571;SDS011;20808;48.974;8.452;2022-09-01T08:45:14;13.33;;;8.07;;
34571;SDS011;20808;48.974;8.452;2022-09-01T08:47:46;11.03;;;7.63;;
34571;SDS011;20808;48.974;8.452;2022-09-01T08:50:18;9.70;;;8.53;;
34571;SDS011;20808;48.974;8.452;2022-09-01T08:52:46;8.70;;;7.23;;
34571;SDS011;20808;48.974;8.452;2022-09-01T08:55:20;8.00;;;6.70;;
34571;SDS011;20808;48.974;8.452;2022-09-01T08:57:53;9.10;;;8.03;;
34571;SDS011;20808;48.974;8.452;2022-09-01T09:00:22;6.90;;;6.13;;
34571;SDS011;20808;48.974;8.452;2022-09-01T09:02:52;8.10;;;6.37;;
34571;SDS011;20808;48.974;8.452;2022-09-01T09:05:34;8.43;;;7.40;;
34571;SDS011;20808;48.974;8.452;2022-09-01T09:08:21;7.73;;;6.60;;
34571;SDS011;20808;48.974;8.452;2022-09-01T09:11:00;8.20;;;6.37;;
34571;SDS011;20808;48.974;8.452;2022-09-01T09:13:33;6.43;;;5.73;;
34571;SDS011;20808;48.974;8.452;2022-09-01T09:16:08;7.90;;;5.83;;
34571;SDS011;20808;48.974;8.452;2022-09-01T09:18:39;7.90;;;5.63;;
34571;SDS011;20808;48.974;8.452;2022-09-01T09:21:11;7.00;;;5.70;;
34571;SDS011;20808;48.974;8.452;2022-09-01T09:23:42;5.63;;;5.10;;
34571;SDS011;20808;48.974;8.452;2022-09-01T09:26:14;8.30;;;5.00;;
34571;SDS011;20808;48.974;8.452;2022-09-01T09:28:46;6.73;;;5.43;;
34571;SDS011;20808;48.974;8.452;2022-09-01T09:31:27;6.33;;;5.00;;
34571;SDS011;20808;48.974;8.452;2022-09-01T09:33:55;7.67;;;5.10;;
34571;SDS011;20808;48.974;8.452;2022-09-01T09:36:27;5.60;;;5.00;;
34571;SDS011;20808;48.974;8.452;2022-09-01T09:41:59;4.17;;;3.60;;
34571;SDS011;20808;48.974;8.452;2022-09-01T09:44:38;4.97;;;3.83;;
34571;SDS011;20808;48.974;8.452;2022-09-01T09:47:08;5.07;;;4.00;;
34571;SDS011;20808;48.974;8.452;2022-09-01T09:49:35;7.80;;;3.90;;
34571;SDS011;20808;48.974;8.452;2022-09-01T09:52:13;7.00;;;3.60;;
34571;SDS011;20808;48.974;8.452;2022-09-01T09:54:56;4.53;;;4.13;;
34571;SDS011;20808;48.974;8.452;2022-09-01T09:57:27;4.43;;;3.50;;
34571;SDS011;20808;48.974;8.452;2022-09-01T09:59:58;4.03;;;3.57;;
34571;SDS011;20808;48.974;8.452;2022-09-01T10:02:27;4.57;;;4.17;;
34571;SDS011;20808;48.974;8.452;2022-09-01T10:04:57;4.90;;;4.40;;
34571;SDS011;20808;48.974;8.452;2022-09-01T10:07:29;9.30;;;4.60;;
34571;SDS011;20808;48.974;8.452;2022-09-01T10:09:59;5.00;;;3.83;;
34571;SDS011;20808;48.974;8.452;2022-09-01T10:12:28;4.47;;;4.00;;
34571;SDS011;20808;48.974;8.452;2022-09-01T10:14:59;8.83;;;4.67;;
34571;SDS011;20808;48.974;8.452;2022-09-01T10:17:31;5.50;;;4.20;;
34571;SDS011;20808;48.974;8.452;2022-09-01T10:20:01;5.83;;;4.43;;
34571;SDS011;20808;48.974;8.452;2022-09-01T10:22:32;4.67;;;4.10;;
34571;SDS011;20808;48.974;8.452;2022-09-01T10:25:02;4.83;;;4.43;;
34571;SDS011;20808;48.974;8.452;2022-09-01T10:27:32;5.00;;;4.50;;
34571;SDS011;20808;48.974;8.452;2022-09-01T10:30:03;5.97;;;4.17;;
34571;SDS011;20808;48.974;8.452;2022-09-01T10:32:35;5.40;;;3.83;;
34571;SDS011;20808;48.974;8.452;2022-09-01T10:35:07;6.00;;;4.40;;
34571;SDS011;20808;48.974;8.452;2022-09-01T10:37:40;4.60;;;4.20;;
34571;SDS011;20808;48.974;8.452;2022-09-01T10:40:12;5.30;;;4.20;;
34571;SDS011;20808;48.974;8.452;2022-09-01T10:42:44;5.20;;;4.20;;
34571;SDS011;20808;48.974;8.452;2022-09-01T10:45:28;4.60;;;4.20;;
34571;SDS011;20808;48.974;8.452;2022-09-01T10:53:56;4.10;;;3.67;;
34571;SDS011;20808;48.974;8.452;2022-09-01T10:56:25;3.78;;;3.47;;
34571;SDS011;20808;48.974;8.452;2022-09-01T10:59:04;4.30;;;3.90;;
34571;SDS011;20808;48.974;8.452;2022-09-01T11:07:36;7.15;;;4.43;;
34571;SDS011;20808;48.974;8.452;2022-09-01T11:13:29;5.40;;;4.30;;
34571;SDS011;20808;48.974;8.452;2022-09-01T11:18:52;5.28;;;4.40;;
34571;SDS011;20808;48.974;8.452;2022-09-01T11:21:22;5.00;;;4.35;;
34571;SDS011;20808;48.974;8.452;2022-09-01T11:24:04;4.60;;;4.20;;
34571;SDS011;20808;48.974;8.452;2022-09-01T11:27:11;5.85;;;4.30;;
34571;SDS011;20808;48.974;8.452;2022-09-01T11:30:00;4.65;;;4.25;;
34571;SDS011;20808;48.974;8.452;2022-09-01T11:32:34;4.88;;;4.47;;
34571;SDS011;20808;48.974;8.452;2022-09-01T11:35:04;4.45;;;4.05;;
34571;SDS011;20808;48.974;8.452;2022-09-01T11:37:38;4.28;;;3.88;;
34571;SDS011;20808;48.974;8.452;2022-09-01T11:40:06;6.20;;;4.53;;
34571;SDS011;20808;48.974;8.452;2022-09-01T11:42:36;4.53;;;4.00;;
34571;SDS011;20808;48.974;8.452;2022-09-01T11:45:13;3.72;;;3.42;;
34571;SDS011;20808;48.974;8.452;2022-09-01T11:47:42;4.13;;;3.72;;
34571;SDS011;20808;48.974;8.452;2022-09-01T11:50:16;4.05;;;3.65;;
34571;SDS011;20808;48.974;8.452;2022-09-01T11:52:50;3.78;;;3.47;;
34571;SDS011;20808;48.974;8.452;2022-09-01T11:55:27;4.78;;;3.70;;
34571;SDS011;20808;48.974;8.452;2022-09-01T11:57:55;4.20;;;3.80;;
34571;SDS011;20808;48.974;8.452;2022-09-01T12:00:28;4.72;;;4.22;;
34571;SDS011;20808;48.974;8.452;2022-09-01T12:02:56;3.60;;;3.30;;
34571;SDS011;20808;48.974;8.452;2022-09-01T12:05:25;4.10;;;3.70;;
34571;SDS011;20808;48.974;8.452;2022-09-01T12:07:55;4.20;;;3.80;;
34571;SDS011;20808;48.974;8.452;2022-09-01T12:10:26;4.03;;;3.65;;
34571;SDS011;20808;48.974;8.452;2022-09-01T12:13:01;5.82;;;4.20;;
34571;SDS011;20808;48.974;8.452;2022-09-01T12:15:31;4.93;;;4.03;;
34571;SDS011;20808;48.974;8.452;2022-09-01T12:18:10;3.95;;;3.60;;
34571;SDS011;20808;48.974;8.452;2022-09-01T12:20:38;6.65;;;3.30;;
34571;SDS011;20808;48.974;8.452;2022-09-01T12:23:14;8.38;;;3.53;;
34571;SDS011;20808;48.974;8.452;2022-09-01T12:25:44;4.32;;;3.72;;
34571;SDS011;20808;48.974;8.452;2022-09-01T12:28:12;6.20;;;4.05;;
34571;SDS011;20808;48.974;8.452;2022-09-01T12:30:41;7.82;;;3.47;;
34571;SDS011;20808;48.974;8.452;2022-09-01T12:33:10;3.97;;;3.58;;
34571;SDS011;20808;48.974;8.452;2022-09-01T12:35:38;4.00;;;3.30;;
34571;SDS011;20808;48.974;8.452;2022-09-01T12:38:15;5.45;;;3.83;;
34571;SDS011;20808;48.974;8.452;2022-09-01T12:40:51;4.05;;;3.65;;
34571;SDS011;20808;48.974;8.452;2022-09-01T12:43:27;4.93;;;3.50;;
34571;SDS011;20808;48.974;8.452;2022-09-01T12:45:57;3.70;;;3.35;;
34571;SDS011;20808;48.974;8.452;2022-09-01T12:48:26;5.68;;;3.80;;
34571;SDS011;20808;48.974;8.452;2022-09-01T12:50:55;4.18;;;3.63;;
34571;SDS011;20808;48.974;8.452;2022-09-01T12:53:27;4.55;;;3.90;;
34571;SDS011;20808;48.974;8.452;2022-09-01T12:56:00;3.92;;;3.53;;
34571;SDS011;20808;48.974;8.452;2022-09-01T12:58:42;3.50;;;3.20;;
34571;SDS011;20808;48.974;8.452;2022-09-01T13:04:13;4.10;;;3.70;;
34571;SDS011;20808;48.974;8.452;2022-09-01T13:06:47;3.63;;;3.30;;
34571;SDS011;20808;48.974;8.452;2022-09-01T13:09:14;3.70;;;3.30;;
34571;SDS011;20808;48.974;8.452;2022-09-01T13:11:41;3.78;;;3.40;;
34571;SDS011;20808;48.974;8.452;2022-09-01T13:14:09;3.25;;;2.95;;
34571;SDS011;20808;48.974;8.452;2022-09-01T13:16:38;3.50;;;3.20;;
34571;SDS011;20808;48.974;8.452;2022-09-01T13:19:05;3.53;;;3.22;;
34571;SDS011;20808;48.974;8.452;2022-09-01T13:21:32;3.67;;;3.38;;
34571;SDS011;20808;48.974;8.452;2022-09-01T13:23:59;8.82;;;3.38;;
34571;SDS011;20808;48.974;8.452;2022-09-01T13:26:28;3.42;;;3.13;;
34571;SDS011;20808;48.974;8.452;2022-09-01T13:28:55;5.38;;;3.33;;
34571;SDS011;20808;48.974;8.452;2022-09-01T13:31:22;3.17;;;2.70;;
34571;SDS011;20808;48.974;8.452;2022-09-01T13:33:50;3.45;;;2.85;;
34571;SDS011;20808;48.974;8.452;2022-09-01T13:36:17;4.28;;;2.83;;
34571;SDS011;20808;48.974;8.452;2022-09-01T13:38:44;3.03;;;2.72;;
34571;SDS011;20808;48.974;8.452;2022-09-01T13:41:11;3.33;;;2.80;;
34571;SDS011;20808;48.974;8.452;2022-09-01T13:43:39;3.20;;;2.90;;
34571;SDS011;20808;48.974;8.452;2022-09-01T13:46:06;4.57;;;3.60;;
34571;SDS011;20808;48.974;8.452;2022-09-01T13:48:33;3.08;;;2.78;;
34571;SDS011;20808;48.974;8.452;2022-09-01T13:51:01;2.60;;;2.40;;
34571;SDS011;20808;48.974;8.452;2022-09-01T13:53:28;4.68;;;2.97;;
34571;SDS011;20808;48.974;8.452;2022-09-01T13:55:55;3.47;;;3.10;;
34571;SDS011;20808;48.974;8.452;2022-09-01T13:58:22;3.25;;;2.80;;
34571;SDS011;20808;48.974;8.452;2022-09-01T14:00:49;2.95;;;2.75;;
34571;SDS011;20808;48.974;8.452;2022-09-01T14:03:16;4.07;;;2.70;;
34571;SDS011;20808;48.974;8.452;2022-09-01T14:05:46;4.97;;;3.00;;
34571;SDS011;20808;48.974;8.452;2022-09-01T14:08:15;2.78;;;2.58;;
34571;SDS011;20808;48.974;8.452;2022-09-01T14:10:46;3.38;;;3.08;;
34571;SDS011;20808;48.974;8.452;2022-09-01T14:13:16;5.28;;;3.08;;
34571;SDS011;20808;48.974;8.452;2022-09-01T14:15:43;3.17;;;2.88;;
34571;SDS011;20808;48.974;8.452;2022-09-01T14:18:12;3.42;;;3.10;;
34571;SDS011;20808;48.974;8.452;2022-09-01T14:20:41;3.30;;;3.00;;
34571;SDS011;20808;48.974;8.452;2022-09-01T14:23:09;3.20;;;2.90;;
34571;SDS011;20808;48.974;8.452;2022-09-01T14:25:42;2.92;;;2.63;;
34571;SDS011;20808;48.974;8.452;2022-09-01T14:28:09;2.95;;;2.38;;
34571;SDS011;20808;48.974;8.452;2022-09-01T14:30:38;3.85;;;2.50;;
34571;SDS011;20808;48.974;8.452;2022-09-01T14:33:05;3.15;;;2.50;;
34571;SDS011;20808;48.974;8.452;2022-09-01T14:35:32;5.55;;;2.65;;
34571;SDS011;20808;48.974;8.452;2022-09-01T14:37:59;2.60;;;2.40;;
34571;SDS011;20808;48.974;8.452;2022-09-01T14:40:29;3.13;;;2.85;;
34571;SDS011;20808;48.974;8.452;2022-09-01T14:42:57;3.50;;;2.70;;
34571;SDS011;20808;48.974;8.452;2022-09-01T14:45:25;3.13;;;2.70;;
34571;SDS011;20808;48.974;8.452;2022-09-01T14:47:54;3.22;;;2.92;;
34571;SDS011;20808;48.974;8.452;2022-09-01T14:50:23;4.97;;;3.20;;
34571;SDS011;20808;48.974;8.452;2022-09-01T14:52:51;3.17;;;2.53;;
34571;SDS011;20808;48.974;8.452;2022-09-01T14:55:20;2.90;;;2.70;;
34571;SDS011;20808;48.974;8.452;2022-09-01T14:57:48;5.17;;;2.73;;
34571;SDS011;20808;48.974;8.452;2022-09-01T15:00:17;2.80;;;2.60;;
34571;SDS011;20808;48.974;8.452;2022-09-01T15:02:44;2.73;;;2.53;;
34571;SDS011;20808;48.974;8.452;2022-09-01T15:05:11;5.50;;;2.50;;
34571;SDS011;20808;48.974;8.452;2022-09-01T15:07:39;5.37;;;2.70;;
34571;SDS011;20808;48.974;8.452;2022-09-01T15:10:07;3.30;;;2.47;;
34571;SDS011;20808;48.974;8.452;2022-09-01T15:12:35;3.10;;;2.60;;